JST834 YBBN-YBPN
Flight info
| Callsign | JST834 |
|---|---|
| Flight time | 1h 41m |
| Altitude | 34000 |
| Route | BIXAD Q67 RUNLA Q493 EMSUP/N0365F200 V308 MK W387 PN |
| Aircraft | A320/M-SDE3FGHIRWY/LB1 |
Departure
| Time | 2026-05-05 05:52 |
|---|---|
| Airport | Brisbane International Airport (YBBN) |
Arrival
| Time | 2026-05-05 07:34 |
|---|---|
| Airport | Proserpine Whitsunday Coast Airport (YBPN) |
| Time | Latitude | Longitude | Altitude | Speed | Heading |
|---|---|---|---|---|---|
| 2026-05-05 05:35 | -27.38681 | 153.12222 | 20 ft | 0 kts | 322° |
| 2026-05-05 05:45 | -27.38686 | 153.12225 | 18 ft | 3 kts | 321° |
| 2026-05-05 05:45 | -27.38702 | 153.12242 | 18 ft | 3 kts | 301° |
| 2026-05-05 05:45 | -27.38708 | 153.12262 | 18 ft | 3 kts | 250° |
| 2026-05-05 05:45 | -27.38702 | 153.12273 | 18 ft | 1 kts | 207° |
| 2026-05-05 05:46 | -27.38699 | 153.12274 | 18 ft | 0 kts | 207° |
| 2026-05-05 05:49 | -27.38714 | 153.12266 | 18 ft | 13 kts | 207° |
| 2026-05-05 05:49 | -27.38826 | 153.12272 | 20 ft | 17 kts | 166° |
| 2026-05-05 05:49 | -27.38944 | 153.12219 | 18 ft | 20 kts | 207° |
| 2026-05-05 05:50 | -27.39074 | 153.12145 | 18 ft | 22 kts | 207° |
| 2026-05-05 05:50 | -27.39221 | 153.12061 | 20 ft | 25 kts | 207° |
| 2026-05-05 05:50 | -27.39381 | 153.11970 | 19 ft | 27 kts | 206° |
| 2026-05-05 05:50 | -27.39511 | 153.11975 | 18 ft | 18 kts | 114° |
| 2026-05-05 05:51 | -27.39569 | 153.12092 | 20 ft | 12 kts | 117° |
| 2026-05-05 05:51 | -27.39578 | 153.12113 | 19 ft | 0 kts | 116° |
| 2026-05-05 05:51 | -27.39584 | 153.12174 | 20 ft | 23 kts | 86° |
| 2026-05-05 05:52 | -27.39365 | 153.12347 | 22 ft | 70 kts | 26° |
| 2026-05-05 05:52 | -27.38739 | 153.12704 | 21 ft | 129 kts | 27° |
| 2026-05-05 05:52 | -27.37813 | 153.13235 | 176 ft | 160 kts | 28° |
| 2026-05-05 05:52 | -27.36901 | 153.13940 | 824 ft | 160 kts | 43° |
| 2026-05-05 05:53 | -27.36117 | 153.14824 | 1484 ft | 160 kts | 47° |
| 2026-05-05 05:53 | -27.35332 | 153.15769 | 1931 ft | 175 kts | 47° |
| 2026-05-05 05:53 | -27.34444 | 153.16830 | 2266 ft | 197 kts | 45° |
| 2026-05-05 05:53 | -27.33194 | 153.17610 | 2554 ft | 221 kts | 9° |
| 2026-05-05 05:54 | -27.31586 | 153.17806 | 2960 ft | 245 kts | 4° |
| 2026-05-05 05:54 | -27.29804 | 153.17991 | 3461 ft | 267 kts | 5° |
| 2026-05-05 05:54 | -27.27925 | 153.18190 | 4301 ft | 274 kts | 5° |
| 2026-05-05 05:54 | -27.26013 | 153.18396 | 5252 ft | 278 kts | 6° |
| 2026-05-05 05:55 | -27.24080 | 153.18605 | 6216 ft | 280 kts | 6° |
| 2026-05-05 05:55 | -27.22156 | 153.18816 | 7104 ft | 283 kts | 6° |
| 2026-05-05 05:55 | -27.20179 | 153.19032 | 7952 ft | 288 kts | 6° |
| 2026-05-05 05:55 | -27.18167 | 153.19254 | 8799 ft | 293 kts | 6° |
| 2026-05-05 05:56 | -27.16123 | 153.19481 | 9620 ft | 298 kts | 5° |
| 2026-05-05 05:56 | -27.14031 | 153.19712 | 10266 ft | 310 kts | 5° |
| 2026-05-05 05:56 | -27.11804 | 153.19954 | 10525 ft | 332 kts | 5° |
| 2026-05-05 05:56 | -27.09462 | 153.20208 | 11070 ft | 341 kts | 4° |
| 2026-05-05 05:57 | -27.07091 | 153.20466 | 11828 ft | 343 kts | 4° |
| 2026-05-05 05:57 | -27.04711 | 153.20728 | 12612 ft | 344 kts | 3° |
| 2026-05-05 05:57 | -27.02324 | 153.20992 | 13394 ft | 345 kts | 2° |
| 2026-05-05 05:57 | -26.99926 | 153.21256 | 14122 ft | 346 kts | 2° |
| 2026-05-05 05:58 | -26.97521 | 153.21520 | 14768 ft | 348 kts | 1° |
| 2026-05-05 05:58 | -26.95106 | 153.21782 | 15405 ft | 350 kts | 1° |
| 2026-05-05 05:58 | -26.92674 | 153.22044 | 16035 ft | 352 kts | 1° |
| 2026-05-05 05:58 | -26.90232 | 153.22309 | 16670 ft | 354 kts | 0° |
| 2026-05-05 05:59 | -26.87777 | 153.22577 | 17308 ft | 356 kts | 0° |
| 2026-05-05 05:59 | -26.85307 | 153.22848 | 17936 ft | 358 kts | 360° |
| 2026-05-05 05:59 | -26.82824 | 153.23121 | 18517 ft | 360 kts | 359° |
| 2026-05-05 05:59 | -26.80314 | 153.23397 | 19018 ft | 364 kts | 359° |
| 2026-05-05 06:00 | -26.77774 | 153.23676 | 19551 ft | 368 kts | 359° |
| 2026-05-05 06:00 | -26.75251 | 153.23952 | 20107 ft | 370 kts | 359° |
| 2026-05-05 06:00 | -26.72675 | 153.24232 | 20669 ft | 373 kts | 359° |
| 2026-05-05 06:00 | -26.70086 | 153.24385 | 21217 ft | 371 kts | 352° |
| 2026-05-05 06:01 | -26.67536 | 153.24035 | 21761 ft | 368 kts | 342° |
| 2026-05-05 06:01 | -26.65085 | 153.23240 | 22305 ft | 368 kts | 338° |
| 2026-05-05 06:01 | -26.62630 | 153.22381 | 22875 ft | 371 kts | 338° |
| 2026-05-05 06:01 | -26.60156 | 153.21520 | 23416 ft | 374 kts | 338° |
| 2026-05-05 06:02 | -26.57662 | 153.20655 | 23893 ft | 377 kts | 338° |
| 2026-05-05 06:02 | -26.55145 | 153.19784 | 24337 ft | 379 kts | 338° |
| 2026-05-05 06:02 | -26.52630 | 153.18919 | 24886 ft | 377 kts | 338° |
| 2026-05-05 06:02 | -26.50120 | 153.18056 | 25371 ft | 378 kts | 338° |
| 2026-05-05 06:03 | -26.47604 | 153.17187 | 25826 ft | 379 kts | 338° |
| 2026-05-05 06:03 | -26.45078 | 153.16312 | 26267 ft | 381 kts | 337° |
| 2026-05-05 06:03 | -26.42538 | 153.15436 | 26692 ft | 383 kts | 337° |
| 2026-05-05 06:03 | -26.39987 | 153.14557 | 27108 ft | 385 kts | 337° |
| 2026-05-05 06:04 | -26.38292 | 153.13974 | 27374 ft | 386 kts | 337° |
| 2026-05-05 06:04 | -26.35719 | 153.13089 | 27778 ft | 388 kts | 337° |
| 2026-05-05 06:04 | -26.33137 | 153.12199 | 28185 ft | 390 kts | 337° |
| 2026-05-05 06:04 | -26.30538 | 153.11304 | 28579 ft | 392 kts | 336° |
| 2026-05-05 06:05 | -26.28017 | 153.10195 | 28971 ft | 388 kts | 328° |
| 2026-05-05 06:05 | -26.25732 | 153.08625 | 29336 ft | 384 kts | 320° |
| 2026-05-05 06:05 | -26.23586 | 153.06855 | 29867 ft | 382 kts | 319° |
| 2026-05-05 06:05 | -26.21447 | 153.05098 | 30316 ft | 382 kts | 319° |
| 2026-05-05 06:06 | -26.19298 | 153.03340 | 30650 ft | 384 kts | 319° |
| 2026-05-05 06:06 | -26.17137 | 153.01578 | 30947 ft | 386 kts | 319° |
| 2026-05-05 06:06 | -26.14963 | 152.99805 | 31236 ft | 389 kts | 319° |
| 2026-05-05 06:06 | -26.12773 | 152.98018 | 31519 ft | 391 kts | 319° |
| 2026-05-05 06:07 | -26.10573 | 152.96223 | 31874 ft | 392 kts | 319° |
| 2026-05-05 06:07 | -26.08374 | 152.94440 | 32291 ft | 392 kts | 319° |
| 2026-05-05 06:07 | -26.06164 | 152.92664 | 32666 ft | 392 kts | 319° |
| 2026-05-05 06:07 | -26.03952 | 152.90894 | 33052 ft | 392 kts | 319° |
| 2026-05-05 06:08 | -26.01740 | 152.89127 | 33461 ft | 392 kts | 319° |
| 2026-05-05 06:08 | -25.99527 | 152.87358 | 33853 ft | 392 kts | 319° |
| 2026-05-05 06:08 | -25.97313 | 152.85583 | 34023 ft | 391 kts | 319° |
| 2026-05-05 06:08 | -25.95124 | 152.83831 | 34048 ft | 385 kts | 319° |
| 2026-05-05 06:09 | -25.90823 | 152.80384 | 34045 ft | 379 kts | 319° |
| 2026-05-05 06:09 | -25.86557 | 152.76968 | 34046 ft | 377 kts | 319° |
| 2026-05-05 06:10 | -25.82297 | 152.73562 | 34043 ft | 377 kts | 319° |
| 2026-05-05 06:10 | -25.78066 | 152.70177 | 34040 ft | 377 kts | 319° |
| 2026-05-05 06:11 | -25.73809 | 152.66772 | 34040 ft | 377 kts | 319° |
| 2026-05-05 06:11 | -25.69544 | 152.63374 | 34040 ft | 377 kts | 319° |
| 2026-05-05 06:12 | -25.65271 | 152.59978 | 34038 ft | 377 kts | 319° |
| 2026-05-05 06:12 | -25.61001 | 152.56581 | 34038 ft | 377 kts | 319° |
| 2026-05-05 06:13 | -25.56745 | 152.53195 | 34046 ft | 376 kts | 320° |
| 2026-05-05 06:13 | -25.52511 | 152.49823 | 34054 ft | 374 kts | 320° |
| 2026-05-05 06:14 | -25.48289 | 152.46472 | 34057 ft | 373 kts | 320° |
| 2026-05-05 06:14 | -25.44067 | 152.43129 | 34056 ft | 372 kts | 320° |
| 2026-05-05 06:15 | -25.39890 | 152.39817 | 34050 ft | 372 kts | 320° |
| 2026-05-05 06:15 | -25.35656 | 152.36471 | 34049 ft | 371 kts | 320° |
| 2026-05-05 06:16 | -25.31480 | 152.33171 | 34047 ft | 371 kts | 320° |
| 2026-05-05 06:16 | -25.27273 | 152.29849 | 34039 ft | 371 kts | 320° |
| 2026-05-05 06:17 | -25.23069 | 152.26530 | 34023 ft | 371 kts | 321° |
| 2026-05-05 06:17 | -25.18865 | 152.23213 | 34033 ft | 371 kts | 321° |
| 2026-05-05 06:18 | -25.14669 | 152.19897 | 34035 ft | 371 kts | 321° |
| 2026-05-05 06:18 | -25.10466 | 152.16579 | 34033 ft | 371 kts | 321° |
| 2026-05-05 06:19 | -25.06257 | 152.13266 | 34037 ft | 371 kts | 321° |
| 2026-05-05 06:19 | -25.02045 | 152.09961 | 34038 ft | 371 kts | 321° |
| 2026-05-05 06:20 | -24.97826 | 152.06669 | 34037 ft | 371 kts | 321° |
| 2026-05-05 06:20 | -24.93614 | 152.03378 | 34039 ft | 371 kts | 321° |
| 2026-05-05 06:21 | -24.89436 | 152.00099 | 34035 ft | 371 kts | 321° |
| 2026-05-05 06:21 | -24.85228 | 151.96806 | 34033 ft | 371 kts | 321° |
| 2026-05-05 06:22 | -24.81017 | 151.93511 | 34039 ft | 371 kts | 321° |
| 2026-05-05 06:22 | -24.76803 | 151.90219 | 34036 ft | 372 kts | 321° |
| 2026-05-05 06:23 | -24.72576 | 151.86928 | 34033 ft | 372 kts | 321° |
| 2026-05-05 06:23 | -24.68346 | 151.83630 | 34034 ft | 373 kts | 321° |
| 2026-05-05 06:24 | -24.64111 | 151.80332 | 34039 ft | 372 kts | 321° |
| 2026-05-05 06:24 | -24.59877 | 151.77043 | 34010 ft | 373 kts | 321° |
| 2026-05-05 06:25 | -24.55659 | 151.73770 | 34013 ft | 374 kts | 321° |
| 2026-05-05 06:25 | -24.51398 | 151.70470 | 34011 ft | 375 kts | 321° |
| 2026-05-05 06:26 | -24.47132 | 151.67164 | 34017 ft | 376 kts | 321° |
| 2026-05-05 06:26 | -24.42827 | 151.63820 | 34307 ft | 382 kts | 321° |
| 2026-05-05 06:27 | -24.40665 | 151.62137 | 34707 ft | 380 kts | 321° |
| 2026-05-05 06:27 | -24.36377 | 151.58819 | 35592 ft | 374 kts | 320° |
| 2026-05-05 06:27 | -24.34254 | 151.57179 | 35932 ft | 373 kts | 320° |
| 2026-05-05 06:28 | -24.32136 | 151.55544 | 36012 ft | 372 kts | 320° |
| 2026-05-05 06:28 | -24.27916 | 151.52286 | 36011 ft | 371 kts | 320° |
| 2026-05-05 06:29 | -24.23675 | 151.49011 | 36030 ft | 373 kts | 320° |
| 2026-05-05 06:29 | -24.19428 | 151.45732 | 36028 ft | 374 kts | 320° |
| 2026-05-05 06:30 | -24.15171 | 151.42452 | 36029 ft | 374 kts | 320° |
| 2026-05-05 06:30 | -24.10921 | 151.39178 | 36031 ft | 373 kts | 320° |
| 2026-05-05 06:31 | -24.06667 | 151.35903 | 36031 ft | 374 kts | 320° |
| 2026-05-05 06:31 | -24.02413 | 151.32634 | 36043 ft | 374 kts | 320° |
| 2026-05-05 06:32 | -23.98180 | 151.29385 | 36043 ft | 373 kts | 320° |
| 2026-05-05 06:32 | -23.93930 | 151.26118 | 36013 ft | 373 kts | 320° |
| 2026-05-05 06:33 | -23.89677 | 151.22850 | 36019 ft | 374 kts | 320° |
| 2026-05-05 06:33 | -23.85381 | 151.19615 | 36025 ft | 377 kts | 322° |
| 2026-05-05 06:34 | -23.80780 | 151.16592 | 36029 ft | 394 kts | 324° |
| 2026-05-05 06:34 | -23.75952 | 151.13593 | 36030 ft | 403 kts | 325° |
| 2026-05-05 06:35 | -23.71091 | 151.10537 | 36027 ft | 403 kts | 324° |
| 2026-05-05 06:35 | -23.66250 | 151.07439 | 36028 ft | 403 kts | 324° |
| 2026-05-05 06:36 | -23.61417 | 151.04322 | 36015 ft | 404 kts | 324° |
| 2026-05-05 06:36 | -23.56560 | 151.01204 | 36035 ft | 405 kts | 324° |
| 2026-05-05 06:37 | -23.51724 | 150.98114 | 36038 ft | 405 kts | 324° |
| 2026-05-05 06:37 | -23.46856 | 150.95005 | 36039 ft | 405 kts | 324° |
| 2026-05-05 06:38 | -23.41989 | 150.91892 | 36040 ft | 405 kts | 324° |
| 2026-05-05 06:38 | -23.37126 | 150.88791 | 36045 ft | 405 kts | 324° |
| 2026-05-05 06:39 | -23.32259 | 150.85689 | 36045 ft | 405 kts | 324° |
| 2026-05-05 06:39 | -23.27383 | 150.82590 | 36026 ft | 405 kts | 324° |
| 2026-05-05 06:40 | -23.22517 | 150.79489 | 36032 ft | 405 kts | 324° |
| 2026-05-05 06:40 | -23.17644 | 150.76395 | 36040 ft | 406 kts | 324° |
| 2026-05-05 06:41 | -23.12804 | 150.73317 | 36048 ft | 405 kts | 324° |
| 2026-05-05 06:41 | -23.07942 | 150.70222 | 36053 ft | 405 kts | 324° |
| 2026-05-05 06:42 | -23.03070 | 150.67135 | 36045 ft | 405 kts | 324° |
| 2026-05-05 06:42 | -22.98206 | 150.64050 | 36025 ft | 405 kts | 324° |
| 2026-05-05 06:43 | -22.93339 | 150.60967 | 36030 ft | 405 kts | 324° |
| 2026-05-05 06:43 | -22.88477 | 150.57891 | 36020 ft | 405 kts | 324° |
| 2026-05-05 06:44 | -22.83627 | 150.54819 | 36032 ft | 406 kts | 324° |
| 2026-05-05 06:44 | -22.78745 | 150.51742 | 36035 ft | 406 kts | 324° |
| 2026-05-05 06:45 | -22.73866 | 150.48670 | 36038 ft | 406 kts | 324° |
| 2026-05-05 06:45 | -22.68990 | 150.45591 | 36048 ft | 405 kts | 324° |
| 2026-05-05 06:46 | -22.64113 | 150.42517 | 36021 ft | 405 kts | 324° |
| 2026-05-05 06:46 | -22.59231 | 150.39445 | 36021 ft | 406 kts | 324° |
| 2026-05-05 06:47 | -22.54343 | 150.36378 | 36025 ft | 406 kts | 324° |
| 2026-05-05 06:47 | -22.49460 | 150.33303 | 36024 ft | 406 kts | 324° |
| 2026-05-05 06:48 | -22.44569 | 150.30230 | 36027 ft | 407 kts | 324° |
| 2026-05-05 06:48 | -22.39674 | 150.27156 | 36024 ft | 407 kts | 324° |
| 2026-05-05 06:49 | -22.34778 | 150.24089 | 36027 ft | 407 kts | 324° |
| 2026-05-05 06:49 | -22.29876 | 150.21017 | 36010 ft | 407 kts | 324° |
| 2026-05-05 06:50 | -22.25919 | 150.18308 | 36008 ft | 402 kts | 316° |
| 2026-05-05 06:50 | -22.21682 | 150.14372 | 36013 ft | 401 kts | 315° |
| 2026-05-05 06:51 | -22.16761 | 150.09800 | 36019 ft | 402 kts | 315° |
| 2026-05-05 06:51 | -22.13205 | 150.06516 | 36018 ft | 402 kts | 315° |
| 2026-05-05 06:52 | -22.08960 | 150.02600 | 36028 ft | 402 kts | 315° |
| 2026-05-05 06:52 | -22.04720 | 149.98676 | 36026 ft | 402 kts | 315° |
| 2026-05-05 06:53 | -22.00501 | 149.94770 | 36028 ft | 402 kts | 315° |
| 2026-05-05 06:53 | -21.96255 | 149.90848 | 36010 ft | 402 kts | 315° |
| 2026-05-05 06:54 | -21.92003 | 149.86931 | 36016 ft | 402 kts | 315° |
| 2026-05-05 06:54 | -21.87752 | 149.83012 | 36020 ft | 402 kts | 315° |
| 2026-05-05 06:55 | -21.83494 | 149.79099 | 36023 ft | 403 kts | 315° |
| 2026-05-05 06:55 | -21.79239 | 149.75185 | 36025 ft | 402 kts | 315° |
| 2026-05-05 06:56 | -21.74984 | 149.71274 | 36026 ft | 402 kts | 315° |
| 2026-05-05 06:56 | -21.70728 | 149.67359 | 36027 ft | 402 kts | 315° |
| 2026-05-05 06:57 | -21.66462 | 149.63442 | 35384 ft | 406 kts | 316° |
| 2026-05-05 06:57 | -21.64323 | 149.61483 | 34862 ft | 403 kts | 316° |
| 2026-05-05 06:57 | -21.62178 | 149.59520 | 34358 ft | 406 kts | 316° |
| 2026-05-05 06:57 | -21.60018 | 149.57546 | 33788 ft | 408 kts | 316° |
| 2026-05-05 06:58 | -21.57846 | 149.55564 | 33236 ft | 410 kts | 316° |
| 2026-05-05 06:58 | -21.55661 | 149.53573 | 32690 ft | 413 kts | 316° |
| 2026-05-05 06:58 | -21.53461 | 149.51570 | 32129 ft | 415 kts | 317° |
| 2026-05-05 06:58 | -21.51249 | 149.49556 | 31572 ft | 418 kts | 317° |
| 2026-05-05 06:59 | -21.49028 | 149.47533 | 31013 ft | 420 kts | 317° |
| 2026-05-05 06:59 | -21.46794 | 149.45501 | 30455 ft | 422 kts | 317° |
| 2026-05-05 06:59 | -21.44574 | 149.43482 | 29872 ft | 425 kts | 318° |
| 2026-05-05 06:59 | -21.42308 | 149.41424 | 29298 ft | 427 kts | 318° |
| 2026-05-05 07:00 | -21.40031 | 149.39355 | 28751 ft | 430 kts | 318° |
| 2026-05-05 07:00 | -21.37740 | 149.37272 | 28221 ft | 433 kts | 318° |
| 2026-05-05 07:00 | -21.35438 | 149.35178 | 27683 ft | 435 kts | 318° |
| 2026-05-05 07:00 | -21.33125 | 149.33074 | 27170 ft | 437 kts | 318° |
| 2026-05-05 07:01 | -21.30795 | 149.30954 | 26649 ft | 440 kts | 318° |
| 2026-05-05 07:01 | -21.28454 | 149.28829 | 26122 ft | 442 kts | 319° |
| 2026-05-05 07:01 | -21.26108 | 149.26702 | 25607 ft | 441 kts | 319° |
| 2026-05-05 07:01 | -21.23768 | 149.24579 | 25056 ft | 439 kts | 319° |
| 2026-05-05 07:02 | -21.21438 | 149.22466 | 24508 ft | 437 kts | 319° |
| 2026-05-05 07:02 | -21.19121 | 149.20367 | 23964 ft | 435 kts | 319° |
| 2026-05-05 07:02 | -21.16818 | 149.18280 | 23337 ft | 433 kts | 319° |
| 2026-05-05 07:02 | -21.14542 | 149.16184 | 22737 ft | 430 kts | 318° |
| 2026-05-05 07:03 | -21.12298 | 149.14075 | 22149 ft | 428 kts | 318° |
| 2026-05-05 07:03 | -21.10081 | 149.11968 | 21573 ft | 425 kts | 317° |
| 2026-05-05 07:03 | -21.07877 | 149.09865 | 20992 ft | 422 kts | 317° |
| 2026-05-05 07:03 | -21.05716 | 149.07811 | 20415 ft | 420 kts | 318° |
| 2026-05-05 07:04 | -21.03531 | 149.05745 | 19853 ft | 417 kts | 318° |
| 2026-05-05 07:04 | -21.01357 | 149.03694 | 19267 ft | 415 kts | 318° |
| 2026-05-05 07:04 | -20.99199 | 149.01660 | 18694 ft | 412 kts | 318° |
| 2026-05-05 07:04 | -20.97050 | 148.99640 | 18107 ft | 410 kts | 318° |
| 2026-05-05 07:05 | -20.94916 | 148.97632 | 17519 ft | 408 kts | 318° |
| 2026-05-05 07:05 | -20.92787 | 148.95632 | 16961 ft | 406 kts | 318° |
| 2026-05-05 07:05 | -20.90671 | 148.93643 | 16405 ft | 404 kts | 318° |
| 2026-05-05 07:05 | -20.88563 | 148.91664 | 15864 ft | 401 kts | 319° |
| 2026-05-05 07:06 | -20.86473 | 148.89702 | 15323 ft | 399 kts | 319° |
| 2026-05-05 07:06 | -20.84395 | 148.87747 | 14784 ft | 396 kts | 319° |
| 2026-05-05 07:06 | -20.82329 | 148.85803 | 14256 ft | 394 kts | 319° |
| 2026-05-05 07:06 | -20.80278 | 148.83877 | 13709 ft | 391 kts | 319° |
| 2026-05-05 07:07 | -20.78234 | 148.81959 | 13174 ft | 390 kts | 318° |
| 2026-05-05 07:07 | -20.76193 | 148.80048 | 12663 ft | 390 kts | 319° |
| 2026-05-05 07:07 | -20.74154 | 148.78143 | 12154 ft | 389 kts | 319° |
| 2026-05-05 07:07 | -20.72115 | 148.76241 | 11639 ft | 389 kts | 319° |
| 2026-05-05 07:08 | -20.70079 | 148.74343 | 11138 ft | 388 kts | 319° |
| 2026-05-05 07:08 | -20.68055 | 148.72455 | 10635 ft | 385 kts | 320° |
| 2026-05-05 07:08 | -20.66042 | 148.70571 | 10132 ft | 385 kts | 320° |
| 2026-05-05 07:08 | -20.64023 | 148.68677 | 9610 ft | 387 kts | 320° |
| 2026-05-05 07:09 | -20.62000 | 148.66778 | 9094 ft | 387 kts | 320° |
| 2026-05-05 07:09 | -20.60007 | 148.64907 | 8594 ft | 387 kts | 320° |
| 2026-05-05 07:09 | -20.57982 | 148.63017 | 8090 ft | 386 kts | 320° |
| 2026-05-05 07:09 | -20.55968 | 148.61140 | 7583 ft | 384 kts | 320° |
| 2026-05-05 07:10 | -20.53961 | 148.59271 | 7080 ft | 383 kts | 320° |
| 2026-05-05 07:10 | -20.51955 | 148.57405 | 6577 ft | 381 kts | 320° |
| 2026-05-05 07:10 | -20.49980 | 148.55524 | 6053 ft | 381 kts | 315° |
| 2026-05-05 07:10 | -20.48339 | 148.53317 | 5549 ft | 379 kts | 306° |
| 2026-05-05 07:11 | -20.46821 | 148.51045 | 5119 ft | 370 kts | 302° |
| 2026-05-05 07:11 | -20.45841 | 148.48620 | 4984 ft | 342 kts | 282° |
| 2026-05-05 07:11 | -20.45399 | 148.46246 | 4815 ft | 311 kts | 278° |
| 2026-05-05 07:11 | -20.45025 | 148.44069 | 4704 ft | 286 kts | 278° |
| 2026-05-05 07:12 | -20.44671 | 148.42061 | 4568 ft | 266 kts | 278° |
| 2026-05-05 07:12 | -20.44340 | 148.40196 | 4443 ft | 247 kts | 278° |
| 2026-05-05 07:12 | -20.44026 | 148.38463 | 4279 ft | 230 kts | 279° |
| 2026-05-05 07:12 | -20.43377 | 148.36943 | 3973 ft | 227 kts | 312° |
| 2026-05-05 07:13 | -20.42069 | 148.36077 | 3764 ft | 219 kts | 349° |
| 2026-05-05 07:13 | -20.40604 | 148.36075 | 3585 ft | 207 kts | 21° |
| 2026-05-05 07:13 | -20.39402 | 148.36825 | 3301 ft | 199 kts | 53° |
| 2026-05-05 07:13 | -20.38767 | 148.38046 | 3107 ft | 181 kts | 85° |
| 2026-05-05 07:14 | -20.38879 | 148.39343 | 3045 ft | 177 kts | 116° |
| 2026-05-05 07:14 | -20.39598 | 148.40377 | 3018 ft | 175 kts | 134° |
| 2026-05-05 07:14 | -20.40357 | 148.41406 | 3010 ft | 177 kts | 128° |
| 2026-05-05 07:14 | -20.41104 | 148.42470 | 2786 ft | 180 kts | 128° |
| 2026-05-05 07:15 | -20.41843 | 148.43516 | 2533 ft | 178 kts | 128° |
| 2026-05-05 07:15 | -20.42443 | 148.44363 | 2356 ft | 176 kts | 128° |
| 2026-05-05 07:15 | -20.42563 | 148.44534 | 2310 ft | 174 kts | 128° |
| 2026-05-05 07:15 | -20.43265 | 148.45532 | 2062 ft | 162 kts | 127° |
| 2026-05-05 07:16 | -20.43918 | 148.46465 | 1846 ft | 152 kts | 127° |
| 2026-05-05 07:16 | -20.44516 | 148.47322 | 1672 ft | 138 kts | 127° |
| 2026-05-05 07:16 | -20.45076 | 148.48123 | 1479 ft | 132 kts | 128° |
| 2026-05-05 07:16 | -20.45621 | 148.48901 | 1313 ft | 130 kts | 128° |
| 2026-05-05 07:17 | -20.46162 | 148.49675 | 1135 ft | 130 kts | 128° |
| 2026-05-05 07:17 | -20.46703 | 148.50448 | 973 ft | 130 kts | 127° |
| 2026-05-05 07:17 | -20.47243 | 148.51221 | 810 ft | 129 kts | 124° |
| 2026-05-05 07:17 | -20.47780 | 148.51992 | 634 ft | 130 kts | 124° |
| 2026-05-05 07:18 | -20.48308 | 148.52773 | 459 ft | 129 kts | 118° |
| 2026-05-05 07:18 | -20.48691 | 148.53619 | 298 ft | 130 kts | 111° |
| 2026-05-05 07:18 | -20.49071 | 148.54502 | 115 ft | 129 kts | 113° |
| 2026-05-05 07:18 | -20.49412 | 148.55290 | 82 ft | 113 kts | 113° |
| 2026-05-05 07:19 | -20.49809 | 148.56174 | 486 ft | 145 kts | 114° |
| 2026-05-05 07:19 | -20.50346 | 148.57165 | 1176 ft | 162 kts | 130° |
| 2026-05-05 07:19 | -20.51235 | 148.57913 | 2089 ft | 167 kts | 146° |
| 2026-05-05 07:19 | -20.52287 | 148.58642 | 2450 ft | 191 kts | 146° |
| 2026-05-05 07:20 | -20.53236 | 148.59637 | 3263 ft | 193 kts | 132° |
| 2026-05-05 07:20 | -20.54131 | 148.60705 | 4122 ft | 194 kts | 131° |
| 2026-05-05 07:20 | -20.55191 | 148.61601 | 4845 ft | 202 kts | 158° |
| 2026-05-05 07:20 | -20.56590 | 148.61732 | 5056 ft | 208 kts | 191° |
| 2026-05-05 07:21 | -20.57841 | 148.60945 | 5110 ft | 216 kts | 226° |
| 2026-05-05 07:21 | -20.58470 | 148.59485 | 5113 ft | 224 kts | 261° |
| 2026-05-05 07:21 | -20.58313 | 148.57824 | 5125 ft | 228 kts | 282° |
| 2026-05-05 07:21 | -20.57890 | 148.56192 | 5125 ft | 229 kts | 284° |
| 2026-05-05 07:22 | -20.57429 | 148.54562 | 5127 ft | 229 kts | 285° |
| 2026-05-05 07:22 | -20.56962 | 148.52943 | 5122 ft | 229 kts | 285° |
| 2026-05-05 07:22 | -20.56497 | 148.51311 | 5118 ft | 230 kts | 285° |
| 2026-05-05 07:22 | -20.56034 | 148.49671 | 5119 ft | 231 kts | 285° |
| 2026-05-05 07:23 | -20.55571 | 148.48038 | 5120 ft | 230 kts | 285° |
| 2026-05-05 07:23 | -20.55105 | 148.46408 | 5116 ft | 230 kts | 285° |
| 2026-05-05 07:23 | -20.54581 | 148.44802 | 5115 ft | 229 kts | 298° |
| 2026-05-05 07:23 | -20.53575 | 148.43484 | 5123 ft | 231 kts | 315° |
| 2026-05-05 07:24 | -20.52400 | 148.42312 | 5122 ft | 232 kts | 317° |
| 2026-05-05 07:24 | -20.51219 | 148.41177 | 5123 ft | 232 kts | 318° |
| 2026-05-05 07:24 | -20.50024 | 148.40029 | 5121 ft | 231 kts | 318° |
| 2026-05-05 07:24 | -20.48824 | 148.38880 | 5116 ft | 231 kts | 318° |
| 2026-05-05 07:25 | -20.47628 | 148.37735 | 5122 ft | 231 kts | 318° |
| 2026-05-05 07:25 | -20.46435 | 148.36593 | 5119 ft | 230 kts | 318° |
| 2026-05-05 07:25 | -20.45239 | 148.35454 | 5120 ft | 230 kts | 318° |
| 2026-05-05 07:25 | -20.44041 | 148.34321 | 5120 ft | 230 kts | 318° |
| 2026-05-05 07:26 | -20.42842 | 148.33184 | 5122 ft | 231 kts | 318° |
| 2026-05-05 07:26 | -20.41639 | 148.32039 | 5120 ft | 232 kts | 318° |
| 2026-05-05 07:26 | -20.40435 | 148.30893 | 5114 ft | 232 kts | 318° |
| 2026-05-05 07:26 | -20.39232 | 148.29751 | 5114 ft | 231 kts | 318° |
| 2026-05-05 07:27 | -20.38033 | 148.28617 | 5112 ft | 231 kts | 320° |
| 2026-05-05 07:27 | -20.36618 | 148.27873 | 5111 ft | 228 kts | 355° |
| 2026-05-05 07:27 | -20.35093 | 148.28106 | 5113 ft | 221 kts | 31° |
| 2026-05-05 07:27 | -20.33979 | 148.29160 | 5115 ft | 213 kts | 64° |
| 2026-05-05 07:28 | -20.33573 | 148.30628 | 5115 ft | 206 kts | 94° |
| 2026-05-05 07:28 | -20.33894 | 148.32082 | 4936 ft | 200 kts | 123° |
| 2026-05-05 07:28 | -20.34705 | 148.33276 | 4821 ft | 200 kts | 129° |
| 2026-05-05 07:28 | -20.35539 | 148.34463 | 4596 ft | 199 kts | 128° |
| 2026-05-05 07:29 | -20.36365 | 148.35643 | 4350 ft | 198 kts | 128° |
| 2026-05-05 07:29 | -20.37187 | 148.36820 | 4093 ft | 197 kts | 128° |
| 2026-05-05 07:29 | -20.38005 | 148.37987 | 3822 ft | 196 kts | 128° |
| 2026-05-05 07:29 | -20.38802 | 148.39130 | 3565 ft | 188 kts | 128° |
| 2026-05-05 07:30 | -20.39586 | 148.40256 | 3309 ft | 189 kts | 128° |
| 2026-05-05 07:30 | -20.41153 | 148.42501 | 2781 ft | 188 kts | 127° |
| 2026-05-05 07:30 | -20.41933 | 148.43618 | 2517 ft | 187 kts | 127° |
| 2026-05-05 07:31 | -20.42684 | 148.44690 | 2289 ft | 174 kts | 127° |
| 2026-05-05 07:31 | -20.43384 | 148.45691 | 2029 ft | 163 kts | 127° |
| 2026-05-05 07:31 | -20.44035 | 148.46622 | 1819 ft | 148 kts | 127° |
| 2026-05-05 07:31 | -20.44617 | 148.47457 | 1654 ft | 136 kts | 127° |
| 2026-05-05 07:32 | -20.45162 | 148.48239 | 1459 ft | 131 kts | 128° |
| 2026-05-05 07:32 | -20.45703 | 148.49013 | 1292 ft | 130 kts | 128° |
| 2026-05-05 07:32 | -20.46241 | 148.49783 | 1121 ft | 129 kts | 128° |
| 2026-05-05 07:32 | -20.46777 | 148.50550 | 947 ft | 128 kts | 127° |
| 2026-05-05 07:33 | -20.47315 | 148.51325 | 789 ft | 131 kts | 125° |
| 2026-05-05 07:33 | -20.47861 | 148.52103 | 615 ft | 131 kts | 124° |
| 2026-05-05 07:33 | -20.48364 | 148.52902 | 429 ft | 129 kts | 114° |
| 2026-05-05 07:33 | -20.48755 | 148.53760 | 276 ft | 128 kts | 111° |
| 2026-05-05 07:34 | -20.49127 | 148.54629 | 89 ft | 128 kts | 114° |
| 2026-05-05 07:34 | -20.49450 | 148.55380 | 69 ft | 92 kts | 114° |
| 2026-05-05 07:34 | -20.49644 | 148.55833 | 68 ft | 42 kts | 115° |
| 2026-05-05 07:34 | -20.49723 | 148.55984 | 65 ft | 6 kts | 77° |
| 2026-05-05 07:35 | -20.49681 | 148.55914 | 71 ft | 25 kts | 294° |
| 2026-05-05 07:35 | -20.49594 | 148.55715 | 72 ft | 31 kts | 295° |
| 2026-05-05 07:35 | -20.49499 | 148.55493 | 70 ft | 34 kts | 295° |
| 2026-05-05 07:35 | -20.49399 | 148.55260 | 72 ft | 36 kts | 294° |
| 2026-05-05 07:36 | -20.49318 | 148.55082 | 83 ft | 16 kts | 313° |
| 2026-05-05 07:36 | -20.49205 | 148.55108 | 77 ft | 20 kts | 25° |
| 2026-05-05 07:36 | -20.49042 | 148.55272 | 68 ft | 0 kts | 59° |